createdAt,value
2023-02-26T00:01:31.274Z,7.38
2023-02-26T00:04:01.534Z,4.30
2023-02-26T00:06:30.591Z,2.97
2023-02-26T00:08:58.961Z,5.25
2023-02-26T00:11:27.428Z,3.70
2023-02-26T00:13:57.426Z,3.53
2023-02-26T00:16:29.616Z,6.63
2023-02-26T00:19:01.839Z,2.83
2023-02-26T00:21:32.796Z,8.35
2023-02-26T00:24:02.151Z,4.35
2023-02-26T00:26:32.145Z,5.82
2023-02-26T00:29:02.249Z,5.93
2023-02-26T00:31:30.698Z,6.35
2023-02-26T00:33:59.339Z,3.45
2023-02-26T00:36:38.428Z,4.47
2023-02-26T00:39:24.092Z,3.65
2023-02-26T00:41:52.431Z,4.90
2023-02-26T00:44:23.091Z,4.10
2023-02-26T00:46:57.045Z,2.67
2023-02-26T00:49:36.625Z,2.88
2023-02-26T00:52:07.456Z,4.78
2023-02-26T00:54:35.366Z,4.80
2023-02-26T00:57:04.284Z,3.85
2023-02-26T00:59:33.812Z,4.13
2023-02-26T01:02:01.531Z,5.28
2023-02-26T01:04:29.756Z,4.60
2023-02-26T01:06:58.917Z,4.32
2023-02-26T01:09:28.954Z,5.55
2023-02-26T01:12:01.508Z,5.93
2023-02-26T01:14:31.740Z,2.83
2023-02-26T01:17:09.294Z,5.00
2023-02-26T01:19:44.746Z,3.38
2023-02-26T01:22:20.766Z,5.47
2023-02-26T01:24:50.319Z,4.50
2023-02-26T01:27:18.445Z,5.93
2023-02-26T01:29:46.908Z,5.28
2023-02-26T01:32:24.293Z,5.40
2023-02-26T01:35:01.074Z,4.00
2023-02-26T01:37:37.315Z,6.07
2023-02-26T01:40:36.768Z,7.00
2023-02-26T01:43:10.544Z,3.80
2023-02-26T01:45:53.179Z,3.42
2023-02-26T01:48:36.106Z,3.13
2023-02-26T01:51:04.254Z,3.22
2023-02-26T01:53:32.098Z,4.53
2023-02-26T01:56:03.013Z,5.28
2023-02-26T01:58:34.329Z,3.60
2023-02-26T02:01:03.401Z,5.10
2023-02-26T02:03:36.527Z,3.08
2023-02-26T02:06:08.936Z,4.57
2023-02-26T02:08:37.460Z,5.45
2023-02-26T02:11:09.425Z,4.10
2023-02-26T02:13:55.555Z,4.20
2023-02-26T02:16:34.436Z,2.83
2023-02-26T02:19:21.900Z,4.43
2023-02-26T02:22:03.618Z,5.20
2023-02-26T02:24:40.100Z,5.75
2023-02-26T02:27:13.894Z,6.53
2023-02-26T02:29:56.821Z,2.97
2023-02-26T02:35:13.577Z,2.55
2023-02-26T02:37:48.410Z,4.82
2023-02-26T02:40:20.296Z,4.75
2023-02-26T02:42:53.440Z,5.07
2023-02-26T02:45:26.378Z,5.68
2023-02-26T02:47:58.363Z,3.50
2023-02-26T02:50:32.059Z,2.45
2023-02-26T02:53:04.428Z,5.57
2023-02-26T02:55:36.065Z,3.55
2023-02-26T02:58:07.724Z,9.05
2023-02-26T03:00:40.077Z,6.43
2023-02-26T03:03:15.542Z,4.00
2023-02-26T03:05:45.097Z,2.47
2023-02-26T03:08:16.781Z,2.50
2023-02-26T03:10:45.293Z,4.80
2023-02-26T03:13:18.544Z,5.80
2023-02-26T03:15:59.504Z,4.45
2023-02-26T03:18:41.414Z,9.55
2023-02-26T03:21:14.958Z,5.15
2023-02-26T03:23:51.137Z,2.63
2023-02-26T03:26:28.459Z,5.25
2023-02-26T03:29:00.704Z,6.30
2023-02-26T03:31:33.053Z,3.17
2023-02-26T03:34:04.150Z,3.22
2023-02-26T03:36:38.932Z,3.80
2023-02-26T03:39:12.862Z,2.97
2023-02-26T03:41:45.052Z,4.38
2023-02-26T03:44:19.486Z,5.65
2023-02-26T03:46:53.156Z,3.83
2023-02-26T03:49:27.245Z,4.97
2023-02-26T03:51:58.130Z,6.50
2023-02-26T03:54:31.959Z,2.83
2023-02-26T03:56:59.998Z,4.32
2023-02-26T03:59:28.188Z,5.70
2023-02-26T04:02:00.293Z,4.50
2023-02-26T04:04:34.152Z,3.50
2023-02-26T04:07:04.193Z,5.15
2023-02-26T04:09:32.031Z,5.60
2023-02-26T04:12:00.218Z,4.00
2023-02-26T04:14:30.876Z,3.42
2023-02-26T04:17:00.765Z,6.78
2023-02-26T04:19:28.931Z,2.83
2023-02-26T04:22:00.152Z,6.55
2023-02-26T04:24:29.932Z,4.30
2023-02-26T04:26:58.042Z,4.75
2023-02-26T04:29:26.180Z,3.97
2023-02-26T04:31:54.478Z,6.13
2023-02-26T04:34:22.503Z,3.72
2023-02-26T04:36:50.695Z,3.97
2023-02-26T04:39:18.597Z,2.47
2023-02-26T04:41:47.940Z,2.50
2023-02-26T04:44:15.777Z,2.92
2023-02-26T04:46:43.776Z,6.82
2023-02-26T04:49:11.675Z,8.77
2023-02-26T04:51:39.552Z,2.67
2023-02-26T04:54:07.579Z,4.90
2023-02-26T04:56:35.531Z,2.63
2023-02-26T04:59:04.920Z,7.03
2023-02-26T05:01:32.880Z,8.43
2023-02-26T05:04:01.695Z,4.05
2023-02-26T05:06:29.805Z,2.45
2023-02-26T05:08:57.635Z,2.80
2023-02-26T05:11:25.413Z,3.17
2023-02-26T05:13:53.377Z,3.25
2023-02-26T05:16:22.582Z,2.67
2023-02-26T05:18:50.351Z,4.10
2023-02-26T05:21:18.161Z,5.90
2023-02-26T05:23:46.015Z,6.20
2023-02-26T05:26:13.906Z,3.60
2023-02-26T05:28:41.664Z,4.17
2023-02-26T05:31:09.726Z,2.83
2023-02-26T05:33:38.952Z,4.38
2023-02-26T05:36:07.808Z,3.25
2023-02-26T05:38:35.919Z,3.55
2023-02-26T05:41:03.901Z,3.45
2023-02-26T05:43:33.605Z,4.18
2023-02-26T05:46:01.455Z,2.97
2023-02-26T05:48:29.599Z,4.22
2023-02-26T05:50:58.761Z,4.70
2023-02-26T05:53:26.849Z,6.47
2023-02-26T05:55:55.287Z,2.70
2023-02-26T05:58:23.137Z,5.10
2023-02-26T06:00:51.137Z,7.53
2023-02-26T06:03:19.053Z,3.88
2023-02-26T06:05:46.986Z,2.53
2023-02-26T06:08:16.630Z,2.85
2023-02-26T06:10:44.404Z,2.60
2023-02-26T06:13:12.368Z,4.22
2023-02-26T06:15:40.233Z,3.58
2023-02-26T06:18:08.606Z,5.00
2023-02-26T06:20:37.175Z,5.63
2023-02-26T06:23:05.113Z,5.25
2023-02-26T06:25:34.383Z,4.82
2023-02-26T06:28:02.271Z,3.75
2023-02-26T06:30:31.132Z,4.45
2023-02-26T06:33:00.687Z,2.55
2023-02-26T06:35:30.026Z,2.33
2023-02-26T06:37:58.003Z,3.50
2023-02-26T06:40:25.884Z,2.38
2023-02-26T06:42:55.497Z,4.00
2023-02-26T06:45:25.232Z,5.85
2023-02-26T06:47:53.210Z,2.90
2023-02-26T06:50:21.190Z,4.78
2023-02-26T06:52:49.053Z,4.38
2023-02-26T06:55:16.827Z,2.28
2023-02-26T06:57:44.592Z,5.95
2023-02-26T07:00:15.228Z,2.15
2023-02-26T07:02:43.060Z,2.28
2023-02-26T07:05:11.099Z,2.40
2023-02-26T07:07:39.088Z,2.67
2023-02-26T07:10:08.172Z,4.55
2023-02-26T07:12:36.015Z,3.17
2023-02-26T07:15:03.816Z,4.25
2023-02-26T07:17:33.606Z,10.07
2023-02-26T07:20:06.386Z,5.13
2023-02-26T07:22:34.209Z,2.20
2023-02-26T07:25:02.252Z,2.55
2023-02-26T07:27:30.178Z,4.93
2023-02-26T07:29:58.003Z,5.03
2023-02-26T07:32:26.256Z,6.90
2023-02-26T07:34:55.533Z,2.75
2023-02-26T07:37:23.315Z,2.33
2023-02-26T07:39:51.483Z,2.35
2023-02-26T07:42:19.737Z,5.68
2023-02-26T07:44:48.075Z,1.95
2023-02-26T07:47:15.829Z,3.17
2023-02-26T07:49:43.588Z,2.65
2023-02-26T07:52:12.797Z,5.07
2023-02-26T07:54:41.729Z,3.33
2023-02-26T07:57:09.514Z,4.35
2023-02-26T07:59:37.279Z,3.50
2023-02-26T08:02:05.244Z,3.08
2023-02-26T08:04:33.357Z,5.50
2023-02-26T08:07:01.613Z,2.38
2023-02-26T08:09:31.566Z,2.15
2023-02-26T08:11:59.748Z,2.78
2023-02-26T08:14:27.691Z,3.58
2023-02-26T08:16:56.565Z,2.92
2023-02-26T08:19:24.653Z,5.18
2023-02-26T08:21:56.124Z,1.83
2023-02-26T08:24:23.975Z,3.08
2023-02-26T08:26:53.605Z,1.80
2023-02-26T08:29:22.027Z,5.63
2023-02-26T08:31:49.985Z,2.85
2023-02-26T08:34:18.039Z,2.92
2023-02-26T08:36:45.798Z,1.95
2023-02-26T08:39:13.541Z,3.10
2023-02-26T08:41:41.388Z,1.85
2023-02-26T08:44:10.519Z,2.70
2023-02-26T08:46:38.839Z,3.63
2023-02-26T08:49:07.420Z,2.17
2023-02-26T08:51:35.163Z,4.30
2023-02-26T08:54:03.003Z,2.65
2023-02-26T08:56:31.814Z,3.33
2023-02-26T08:58:59.570Z,1.95
2023-02-26T09:01:29.356Z,1.80
2023-02-26T09:03:57.442Z,1.92
2023-02-26T09:06:25.446Z,7.70
2023-02-26T09:08:53.432Z,3.90
2023-02-26T09:11:21.394Z,3.05
2023-02-26T09:13:49.173Z,2.28
2023-02-26T09:16:17.558Z,4.32
2023-02-26T09:18:46.729Z,8.60
2023-02-26T09:21:14.491Z,3.35
2023-02-26T09:23:42.268Z,3.17
2023-02-26T09:26:10.172Z,8.00
2023-02-26T09:28:38.055Z,5.68
2023-02-26T09:31:07.290Z,4.28
2023-02-26T09:33:35.980Z,2.17
2023-02-26T09:36:06.777Z,3.83
2023-02-26T09:38:36.495Z,4.30
2023-02-26T09:41:06.999Z,1.95
2023-02-26T09:43:57.866Z,2.53
2023-02-26T09:46:38.613Z,3.08
2023-02-26T09:49:19.238Z,4.15
2023-02-26T09:51:52.684Z,3.63
2023-02-26T09:54:23.624Z,3.13
2023-02-26T09:56:53.942Z,3.53
2023-02-26T09:59:21.771Z,4.70
2023-02-26T10:01:58.383Z,5.88
2023-02-26T10:04:40.681Z,4.95
2023-02-26T10:07:22.222Z,4.72
2023-02-26T10:10:02.314Z,6.22
2023-02-26T10:12:34.873Z,3.45
2023-02-26T10:15:07.268Z,5.93
2023-02-26T10:17:44.973Z,3.70
2023-02-26T10:20:18.965Z,4.85
2023-02-26T10:23:00.446Z,3.55
2023-02-26T10:25:34.595Z,2.60
2023-02-26T10:28:08.560Z,4.45
2023-02-26T10:30:38.625Z,4.93
2023-02-26T10:33:16.202Z,3.50
2023-02-26T10:35:52.185Z,4.53
2023-02-26T10:38:25.709Z,3.53
2023-02-26T10:40:59.770Z,2.40
2023-02-26T10:43:32.134Z,2.30
2023-02-26T10:46:17.402Z,3.33
2023-02-26T10:48:56.102Z,4.18
2023-02-26T10:51:26.460Z,3.40
2023-02-26T10:54:00.659Z,4.82
2023-02-26T10:56:31.692Z,8.50
2023-02-26T10:58:59.936Z,4.03
2023-02-26T11:01:31.929Z,3.67
2023-02-26T11:04:04.499Z,3.92
2023-02-26T11:06:35.238Z,3.10
2023-02-26T11:09:06.921Z,4.93
2023-02-26T11:11:42.117Z,5.50
2023-02-26T11:14:11.535Z,7.10
2023-02-26T11:16:46.749Z,6.05
2023-02-26T11:19:16.162Z,5.00
2023-02-26T11:21:46.523Z,5.60
2023-02-26T11:24:32.013Z,4.63
2023-02-26T11:27:04.156Z,3.42
2023-02-26T11:29:39.184Z,3.47
2023-02-26T11:32:08.407Z,3.13
2023-02-26T11:34:36.782Z,5.63
2023-02-26T11:37:06.816Z,5.57
2023-02-26T11:39:39.734Z,3.80
2023-02-26T11:42:07.672Z,2.20
2023-02-26T11:44:39.806Z,4.10
2023-02-26T11:47:12.877Z,5.28
2023-02-26T11:49:44.794Z,7.97
2023-02-26T11:52:21.082Z,2.63
2023-02-26T11:54:52.296Z,2.95
2023-02-26T11:57:24.962Z,5.57
2023-02-26T11:59:54.738Z,4.10
2023-02-26T12:02:24.668Z,3.67
2023-02-26T12:04:55.013Z,4.38
2023-02-26T12:07:23.627Z,4.82
2023-02-26T12:09:52.836Z,3.75
2023-02-26T12:12:31.979Z,3.50
2023-02-26T12:15:14.921Z,1.65
2023-02-26T12:17:55.929Z,3.45
2023-02-26T12:20:36.695Z,2.17
2023-02-26T12:23:17.754Z,7.72
2023-02-26T12:26:09.340Z,5.00
2023-02-26T12:28:49.122Z,1.40
2023-02-26T12:31:59.163Z,1.30
2023-02-26T12:35:05.129Z,1.95
2023-02-26T12:37:51.227Z,1.10
2023-02-26T12:40:44.992Z,1.50
2023-02-26T12:43:25.514Z,2.28
2023-02-26T12:45:59.653Z,2.45
2023-02-26T12:48:59.321Z,1.40
2023-02-26T12:51:41.526Z,1.70
2023-02-26T12:54:40.526Z,3.70
2023-02-26T12:57:35.958Z,2.75
2023-02-26T13:00:24.075Z,2.45
2023-02-26T13:03:23.132Z,1.38
2023-02-26T13:06:16.461Z,1.48
2023-02-26T13:08:54.202Z,2.20
2023-02-26T13:11:29.379Z,2.20
2023-02-26T13:14:22.558Z,1.88
2023-02-26T13:16:58.346Z,2.45
2023-02-26T13:19:36.529Z,5.43
2023-02-26T13:22:13.094Z,3.28
2023-02-26T13:24:44.388Z,2.67
2023-02-26T13:27:15.798Z,3.92
2023-02-26T13:29:48.047Z,5.45
2023-02-26T13:32:19.974Z,2.20
2023-02-26T13:34:54.250Z,3.30
2023-02-26T13:37:26.091Z,1.80
2023-02-26T13:40:06.420Z,3.88
2023-02-26T13:42:41.144Z,1.92
2023-02-26T13:45:24.796Z,2.13
2023-02-26T13:48:13.281Z,1.63
2023-02-26T13:50:52.420Z,6.40
2023-02-26T13:53:47.454Z,1.83
2023-02-26T13:56:18.373Z,3.60
2023-02-26T13:58:52.824Z,2.35
2023-02-26T14:01:27.843Z,2.38
2023-02-26T14:04:10.101Z,1.58
2023-02-26T14:06:42.164Z,1.52
2023-02-26T14:09:32.472Z,2.25
2023-02-26T14:12:02.018Z,3.30
2023-02-26T14:14:37.812Z,4.13
2023-02-26T14:17:30.876Z,4.90
2023-02-26T14:20:24.544Z,2.50
2023-02-26T14:23:00.590Z,3.05
2023-02-26T14:25:35.613Z,3.13
2023-02-26T14:28:31.345Z,2.92
2023-02-26T14:31:12.616Z,2.88
2023-02-26T14:33:45.549Z,3.17
2023-02-26T14:36:22.319Z,3.78
2023-02-26T14:38:52.959Z,2.85
2023-02-26T14:41:29.677Z,6.70
2023-02-26T14:44:02.529Z,6.90
2023-02-26T14:46:31.239Z,7.68
2023-02-26T14:48:59.027Z,3.10
2023-02-26T14:51:38.087Z,3.75
2023-02-26T14:54:28.462Z,3.88
2023-02-26T14:57:04.268Z,3.83
2023-02-26T14:59:54.854Z,4.22
2023-02-26T15:02:29.432Z,4.20
2023-02-26T15:05:19.488Z,2.85
2023-02-26T15:08:01.437Z,4.18
2023-02-26T15:10:42.441Z,2.20
2023-02-26T15:13:37.503Z,4.75
2023-02-26T15:16:15.754Z,3.50
2023-02-26T15:18:58.818Z,4.13
2023-02-26T15:21:33.382Z,4.65
2023-02-26T15:24:03.614Z,3.08
2023-02-26T15:26:34.986Z,3.75
2023-02-26T15:29:06.454Z,4.60
2023-02-26T15:31:37.501Z,4.65
2023-02-26T15:34:05.333Z,5.50
2023-02-26T15:36:33.714Z,3.67
2023-02-26T15:39:09.351Z,5.13
2023-02-26T15:41:40.021Z,4.18
2023-02-26T15:44:10.761Z,7.32
2023-02-26T15:46:41.312Z,4.60
2023-02-26T15:49:11.957Z,2.28
2023-02-26T15:51:40.618Z,5.57
2023-02-26T15:54:17.490Z,4.18
2023-02-26T15:56:45.551Z,7.30
2023-02-26T15:59:17.840Z,3.58
2023-02-26T16:01:45.887Z,5.68
2023-02-26T16:04:17.190Z,2.80
2023-02-26T16:06:48.334Z,1.92
2023-02-26T16:09:21.632Z,2.70
2023-02-26T16:11:50.906Z,5.18
2023-02-26T16:14:23.583Z,3.42
2023-02-26T16:16:54.508Z,2.10
2023-02-26T16:19:31.082Z,5.63
2023-02-26T16:22:04.067Z,9.00
2023-02-26T16:24:34.303Z,5.32
2023-02-26T16:27:07.410Z,6.00
2023-02-26T16:29:38.121Z,8.57
2023-02-26T16:32:10.759Z,6.25
2023-02-26T16:34:43.303Z,5.60
2023-02-26T16:37:19.126Z,8.80
2023-02-26T16:39:54.150Z,4.07
2023-02-26T16:42:24.338Z,9.63
2023-02-26T16:44:58.662Z,7.03
2023-02-26T16:47:31.014Z,8.02
2023-02-26T16:49:59.152Z,5.03
2023-02-26T16:52:28.240Z,6.40
2023-02-26T16:55:01.892Z,8.73
2023-02-26T16:57:36.556Z,8.45
2023-02-26T17:00:10.065Z,9.90
2023-02-26T17:02:39.955Z,10.25
2023-02-26T17:05:17.200Z,10.82
2023-02-26T17:07:49.411Z,7.50
2023-02-26T17:10:23.699Z,8.88
2023-02-26T17:12:52.868Z,10.82
2023-02-26T17:15:27.678Z,12.15
2023-02-26T17:17:56.736Z,8.73
2023-02-26T17:20:25.180Z,8.10
2023-02-26T17:22:53.465Z,4.25
2023-02-26T17:25:25.213Z,8.77
2023-02-26T17:27:53.829Z,12.68
2023-02-26T17:30:25.696Z,4.05
2023-02-26T17:32:53.695Z,3.75
2023-02-26T17:35:21.549Z,3.75
2023-02-26T17:37:50.884Z,6.75
2023-02-26T17:40:23.585Z,7.75
2023-02-26T17:42:51.970Z,7.72
2023-02-26T17:45:21.152Z,9.52
2023-02-26T17:47:50.162Z,10.35
2023-02-26T17:50:36.441Z,12.73
2023-02-26T17:53:04.946Z,13.85
2023-02-26T17:55:35.693Z,10.10
2023-02-26T17:58:03.443Z,13.57
2023-02-26T18:00:31.473Z,11.05
2023-02-26T18:02:59.375Z,8.10
2023-02-26T18:05:27.704Z,8.82
2023-02-26T18:07:55.460Z,5.22
2023-02-26T18:10:25.290Z,5.45
2023-02-26T18:12:54.430Z,7.70
2023-02-26T18:15:22.246Z,7.97
2023-02-26T18:17:50.084Z,5.95
2023-02-26T18:20:22.429Z,5.22
2023-02-26T18:22:50.754Z,5.88
2023-02-26T18:25:18.670Z,5.30
2023-02-26T18:27:51.010Z,9.43
2023-02-26T18:30:27.539Z,6.78
2023-02-26T18:32:55.925Z,5.13
2023-02-26T18:35:24.958Z,7.57
2023-02-26T18:37:53.360Z,8.85
2023-02-26T18:40:23.337Z,7.13
2023-02-26T18:42:51.602Z,6.80
2023-02-26T18:45:20.783Z,7.38
2023-02-26T18:47:49.922Z,6.85
2023-02-26T18:50:19.166Z,7.72
2023-02-26T18:52:47.108Z,11.10
2023-02-26T18:55:15.039Z,5.57
2023-02-26T18:57:43.180Z,9.45
2023-02-26T19:00:14.248Z,10.07
2023-02-26T19:02:42.837Z,7.97
2023-02-26T19:05:13.568Z,9.65
2023-02-26T19:07:42.630Z,7.57
2023-02-26T19:10:14.721Z,14.13
2023-02-26T19:12:42.718Z,10.57
2023-02-26T19:15:12.728Z,7.13
2023-02-26T19:17:40.705Z,11.95
2023-02-26T19:20:11.021Z,12.65
2023-02-26T19:22:42.059Z,9.27
2023-02-26T19:25:10.536Z,10.43
2023-02-26T19:27:39.612Z,12.35
2023-02-26T19:30:08.522Z,10.57
2023-02-26T19:32:36.350Z,7.82
2023-02-26T19:35:04.320Z,6.57
2023-02-26T19:37:32.147Z,6.95
2023-02-26T19:40:01.306Z,10.60
2023-02-26T19:42:29.433Z,13.45
2023-02-26T19:44:57.334Z,9.38
2023-02-26T19:47:25.200Z,8.93
2023-02-26T19:49:53.062Z,9.65
2023-02-26T19:52:21.010Z,9.77
2023-02-26T19:54:48.859Z,9.90
2023-02-26T19:57:18.023Z,7.60
2023-02-26T19:59:47.202Z,12.07
2023-02-26T20:02:15.076Z,8.67
2023-02-26T20:04:42.978Z,15.23
2023-02-26T20:07:10.930Z,6.77
2023-02-26T20:09:38.687Z,11.17
2023-02-26T20:12:06.906Z,9.33
2023-02-26T20:14:36.745Z,11.80
2023-02-26T20:17:05.623Z,9.57
2023-02-26T20:19:33.496Z,7.83
2023-02-26T20:22:05.047Z,7.03
2023-02-26T20:24:34.905Z,5.50
2023-02-26T20:27:02.667Z,10.57
2023-02-26T20:29:30.499Z,9.43
2023-02-26T20:31:59.812Z,11.80
2023-02-26T20:34:27.672Z,6.83
2023-02-26T20:36:55.873Z,14.17
2023-02-26T20:39:24.356Z,13.27
2023-02-26T20:41:52.141Z,13.37
2023-02-26T20:44:20.031Z,13.33
2023-02-26T20:46:48.052Z,16.13
2023-02-26T20:49:17.346Z,11.33
2023-02-26T20:51:45.490Z,14.73
2023-02-26T20:54:14.785Z,7.20
2023-02-26T20:56:42.759Z,10.43
2023-02-26T20:59:10.667Z,8.23
2023-02-26T21:01:38.535Z,12.87
2023-02-26T21:04:08.474Z,12.73
2023-02-26T21:06:38.671Z,10.30
2023-02-26T21:09:08.653Z,14.03
2023-02-26T21:11:37.178Z,11.17
2023-02-26T21:14:07.388Z,17.93
2023-02-26T21:16:35.610Z,11.70
2023-02-26T21:19:03.789Z,12.63
2023-02-26T21:21:32.001Z,12.07
2023-02-26T21:24:01.530Z,5.27
2023-02-26T21:26:29.446Z,8.53
2023-02-26T21:28:57.344Z,9.50
2023-02-26T21:31:25.216Z,8.57
2023-02-26T21:33:53.145Z,9.67
2023-02-26T21:36:21.928Z,6.47
2023-02-26T21:38:49.820Z,7.60
2023-02-26T21:41:20.378Z,8.33
2023-02-26T21:43:48.800Z,9.43
2023-02-26T21:46:16.617Z,6.90
2023-02-26T21:48:46.201Z,6.27
2023-02-26T21:51:15.545Z,11.13
2023-02-26T21:53:45.718Z,12.60
2023-02-26T21:56:13.515Z,6.70
2023-02-26T21:58:43.280Z,12.97
2023-02-26T22:01:11.505Z,6.03
2023-02-26T22:03:39.675Z,4.97
2023-02-26T22:06:07.948Z,10.60
2023-02-26T22:08:36.391Z,9.90
2023-02-26T22:11:04.553Z,7.93
2023-02-26T22:13:33.646Z,7.40
2023-02-26T22:16:03.643Z,9.60
2023-02-26T22:18:32.300Z,14.00
2023-02-26T22:21:00.209Z,6.23
2023-02-26T22:23:28.469Z,5.83
2023-02-26T22:25:56.297Z,11.03
2023-02-26T22:28:24.147Z,11.83
2023-02-26T22:30:56.311Z,12.93
2023-02-26T22:33:25.977Z,8.77
2023-02-26T22:35:57.020Z,12.30
2023-02-26T22:38:25.364Z,9.07
2023-02-26T22:40:53.508Z,10.87
2023-02-26T22:43:21.891Z,8.77
2023-02-26T22:45:50.393Z,11.03
2023-02-26T22:48:18.491Z,8.87
2023-02-26T22:50:47.720Z,6.50
2023-02-26T22:53:15.444Z,10.90
2023-02-26T22:55:43.305Z,10.77
2023-02-26T22:58:11.129Z,7.80
2023-02-26T23:00:39.034Z,7.83
2023-02-26T23:03:07.267Z,10.33
2023-02-26T23:05:35.689Z,9.17
2023-02-26T23:08:05.049Z,8.30
2023-02-26T23:10:33.086Z,7.63
2023-02-26T23:13:02.984Z,12.93
2023-02-26T23:15:31.087Z,7.00
2023-02-26T23:17:59.104Z,13.57
2023-02-26T23:20:27.052Z,4.90
2023-02-26T23:22:55.040Z,6.47
2023-02-26T23:25:26.655Z,16.80
2023-02-26T23:27:54.581Z,9.77
2023-02-26T23:30:22.905Z,9.87
2023-02-26T23:32:50.995Z,10.67
2023-02-26T23:35:19.001Z,10.87
2023-02-26T23:37:46.976Z,9.07
2023-02-26T23:40:15.480Z,9.10
2023-02-26T23:42:45.290Z,8.60
2023-02-26T23:45:13.989Z,8.27
2023-02-26T23:47:41.989Z,12.90
2023-02-26T23:50:11.443Z,8.43
2023-02-26T23:52:39.480Z,6.97
2023-02-26T23:55:08.827Z,12.83
2023-02-26T23:57:36.813Z,16.37
